Ellisville, Missouri
Current Conditions -  °F | °C
As of 5:54 AM on Thursday 29 Jan 2015 (Local Time) from KSUS Reporting Station
Overcast Overcast  
Wind Chill: 38°   Ceiling: 2700
Heat Index: 46°   Visibility: 10mi
Dew Point: 36°   Wind: 21mph
Humidity: 68%   Direction: 280°W
Pressure: 29.92"   Gusts: 35mph
Location:  38.5691°N, 90.5462°W
Report Text: KSUS 291154Z 28018G30KT 10SM OVC027 08/02 A2992 RMK AO2 PK WND 29030/1154 PRESRR SLP134 T00780022 10122 20078 53050
Loading
Personal Weather Stations






























Interactive Weather Map New forecast layout! Learn more

10-Day Weather Forecast

Advertisements
Track Severe Weather on mobile